Time;durP1;ratioP1;P1;durP2;ratioP2;P2;SDS_P1;SDS_P2;PMS_P1;PMS_P2;Temp;Humidity;BMP_temperature;BMP_pressure;BME280_temperature;BME280_humidity;BME280_pressure;Samples;Min_cycle;Max_cycle;Signal;HPM_P1;HPM_P2
2023/08/28 00:02:25;;;;;;;1.40;1.30;;;;;;;15.84;62.53;96862.75;4876694;28;20690;-81
2023/08/28 00:04:51;;;;;;;2.53;1.13;;;;;;;15.68;61.90;96864.03;4906004;28;20621;-82
2023/08/28 00:07:16;;;;;;;1.38;1.08;;;;;;;15.63;63.20;96866.72;4900651;28;20254;-81
2023/08/28 00:09:42;;;;;;;1.10;1.00;;;;;;;15.71;61.97;96843.22;4907924;28;20318;-81
2023/08/28 00:12:07;;;;;;;2.05;1.02;;;;;;;15.79;61.51;96844.44;4883905;28;20273;-82
2023/08/28 00:14:33;;;;;;;1.58;1.27;;;;;;;15.76;61.10;96834.50;4880127;28;20235;-79
2023/08/28 00:16:58;;;;;;;3.92;1.75;;;;;;;15.61;61.23;96824.22;4907411;28;20539;-81
2023/08/28 00:19:23;;;;;;;1.17;1.00;;;;;;;15.61;61.32;96826.84;4891850;28;20099;-79
2023/08/28 00:21:49;;;;;;;1.50;1.02;;;;;;;15.55;61.61;96829.53;4917170;28;20199;-81
2023/08/28 00:24:14;;;;;;;3.15;1.30;;;;;;;15.58;62.20;96827.44;4890047;28;20308;-81
2023/08/28 00:26:40;;;;;;;1.42;1.33;;;;;;;15.60;61.87;96833.16;4885213;28;20175;-81
2023/08/28 00:29:05;;;;;;;2.05;1.00;;;;;;;15.63;62.52;96835.22;4899162;28;20190;-83
2023/08/28 00:31:30;;;;;;;1.75;1.10;;;;;;;15.68;61.62;96825.44;4912383;28;20111;-81
2023/08/28 00:33:56;;;;;;;1.90;1.48;;;;;;;15.69;62.19;96826.97;4915457;28;20037;-81
2023/08/28 00:36:23;;;;;;;2.17;1.15;;;;;;;15.66;61.57;96816.25;4908844;28;20218;-81
2023/08/28 00:38:49;;;;;;;1.17;1.08;;;;;;;15.64;61.36;96810.53;4911099;28;20342;-81
2023/08/28 00:41:14;;;;;;;2.80;1.40;;;;;;;15.69;61.24;96800.72;4896137;28;20560;-80
2023/08/28 00:43:40;;;;;;;1.75;1.17;;;;;;;15.57;61.32;96810.13;4890007;28;20221;-81
2023/08/28 00:46:05;;;;;;;1.35;0.95;;;;;;;15.42;61.89;96824.22;4898500;28;20183;-81
2023/08/28 00:48:31;;;;;;;1.33;1.00;;;;;;;15.41;61.66;96823.44;4892267;28;20246;-81
2023/08/28 00:50:57;;;;;;;1.35;1.20;;;;;;;15.17;62.38;96826.91;4884433;28;20195;-81
2023/08/28 00:53:23;;;;;;;1.50;1.00;;;;;;;15.23;63.77;96811.88;4911515;28;20299;-80
2023/08/28 00:55:49;;;;;;;3.85;1.20;;;;;;;15.31;63.09;96811.25;4919224;28;20291;-80
2023/08/28 00:58:16;;;;;;;1.67;1.38;;;;;;;15.42;63.14;96805.84;4902753;28;20366;-81
2023/08/28 01:00:41;;;;;;;1.10;0.90;;;;;;;15.41;63.18;96812.97;4904079;28;20286;-80
2023/08/28 01:03:07;;;;;;;1.80;1.10;;;;;;;15.42;62.14;96826.84;4944660;23;20013;-86
2023/08/28 01:06:28;;;;;;;2.22;1.13;;;;;;;15.50;62.75;96826.97;4887303;28;20203;-86
2023/08/28 01:09:04;;;;;;;1.00;0.90;;;;;;;15.44;61.12;96817.66;4858113;28;20708;-86
2023/08/28 01:11:54;;;;;;;2.90;1.10;;;;;;;15.47;61.75;96817.09;4883424;28;20632;-86
2023/08/28 01:14:23;;;;;;;1.23;0.90;;;;;;;15.33;61.91;96821.47;4890337;28;20746;-86
2023/08/28 01:16:49;;;;;;;1.73;1.13;;;;;;;15.22;62.00;96825.31;4885280;28;20267;-86
2023/08/28 01:19:36;;;;;;;1.10;0.98;;;;;;;15.24;63.93;96831.03;4879131;28;20710;-86
2023/08/28 01:22:37;;;;;;;2.03;0.88;;;;;;;15.20;63.45;96843.94;4885910;28;20280;-86
2023/08/28 01:25:22;;;;;;;1.65;1.00;;;;;;;15.21;63.12;96849.94;4890613;28;20325;-86
2023/08/28 01:27:47;;;;;;;1.92;1.17;;;;;;;15.20;63.82;96854.44;4897101;28;20614;-86
2023/08/28 01:30:14;;;;;;;1.30;1.13;;;;;;;15.12;64.43;96826.19;4883535;28;20262;-86
2023/08/28 01:32:42;;;;;;;1.10;1.00;;;;;;;15.28;63.13;96837.25;4864008;28;20187;-86
2023/08/28 01:35:24;;;;;;;2.03;1.35;;;;;;;15.40;62.35;96842.88;4861869;28;20243;-87
2023/08/28 01:37:58;;;;;;;3.13;1.10;;;;;;;15.31;62.81;96855.06;4893965;28;20691;-86
2023/08/28 01:40:29;;;;;;;0.77;0.70;;;;;;;15.29;62.57;96851.94;4876980;28;20135;-86
2023/08/28 01:42:55;;;;;;;1.52;1.05;;;;;;;15.38;62.35;96850.25;4877155;28;20283;-86
2023/08/28 01:45:21;;;;;;;2.20;1.15;;;;;;;15.28;61.92;96829.41;4874004;28;20417;-86
2023/08/28 01:47:46;;;;;;;1.23;1.00;;;;;;;15.25;61.77;96837.81;4876474;28;20687;-86
2023/08/28 01:50:11;;;;;;;4.03;1.23;;;;;;;15.21;62.79;96850.72;4874782;28;20334;-86
2023/08/28 01:52:37;;;;;;;1.33;1.10;;;;;;;15.21;63.01;96849.94;4878451;28;20219;-85
2023/08/28 01:55:03;;;;;;;2.13;1.15;;;;;;;15.22;62.70;96852.28;4888856;28;20653;-86
2023/08/28 01:57:29;;;;;;;3.30;0.82;;;;;;;15.16;62.49;96854.22;4869565;28;20199;-86
2023/08/28 01:59:54;;;;;;;2.45;1.10;;;;;;;15.05;62.39;96829.16;4877990;28;20246;-86
2023/08/28 02:02:19;;;;;;;2.28;1.10;;;;;;;15.03;62.23;96820.81;4873860;28;20572;-86
2023/08/28 02:04:46;;;;;;;3.40;1.60;;;;;;;15.24;62.68;96855.41;4893078;28;20688;-86
2023/08/28 02:07:11;;;;;;;1.50;1.20;;;;;;;15.16;62.66;96848.97;4871252;28;20293;-86
2023/08/28 02:09:37;;;;;;;3.17;1.15;;;;;;;15.23;63.18;96847.81;4863201;28;20726;-86
2023/08/28 02:12:02;;;;;;;1.33;0.90;;;;;;;15.11;62.29;96833.28;4895696;28;20565;-86
2023/08/28 02:14:28;;;;;;;1.33;0.98;;;;;;;15.18;62.85;96843.41;4881390;28;20207;-86
2023/08/28 02:16:53;;;;;;;1.10;1.00;;;;;;;15.20;62.78;96848.38;4882527;28;20701;-87
2023/08/28 02:19:18;;;;;;;1.60;1.20;;;;;;;15.10;63.48;96823.84;4898134;28;20291;-86
2023/08/28 02:21:44;;;;;;;1.63;1.00;;;;;;;15.21;63.14;96842.84;4899291;28;20649;-86
2023/08/28 02:24:09;;;;;;;1.30;1.05;;;;;;;15.23;63.02;96851.22;4889369;28;20193;-86
2023/08/28 02:26:35;;;;;;;2.10;1.02;;;;;;;15.16;63.95;96843.72;4878161;28;20174;-87
2023/08/28 02:29:00;;;;;;;1.33;1.15;;;;;;;15.23;63.80;96848.59;4914656;28;20280;-86
2023/08/28 02:31:25;;;;;;;1.52;1.10;;;;;;;15.24;63.83;96838.91;4859337;28;20183;-86
2023/08/28 02:33:51;;;;;;;1.73;1.40;;;;;;;15.21;64.14;96823.72;4898446;28;20216;-86
2023/08/28 02:36:16;;;;;;;1.10;0.90;;;;;;;15.24;63.37;96823.16;4866493;28;20279;-86
2023/08/28 02:38:41;;;;;;;1.92;1.10;;;;;;;15.24;64.11;96812.69;4888411;28;20105;-86
2023/08/28 02:41:09;;;;;;;1.35;0.90;;;;;;;15.21;63.03;96819.25;4868628;28;20471;-87
2023/08/28 02:43:36;;;;;;;1.25;0.90;;;;;;;15.14;63.16;96806.50;4891344;28;20265;-86
2023/08/28 02:46:02;;;;;;;1.45;1.13;;;;;;;15.10;63.26;96802.09;4892230;28;20247;-86
2023/08/28 02:48:27;;;;;;;1.92;1.63;;;;;;;14.94;63.47;96801.50;4873073;28;20281;-86
2023/08/28 02:50:53;;;;;;;1.08;0.98;;;;;;;14.67;63.51;96779.31;4899242;28;20748;-86
2023/08/28 02:53:18;;;;;;;4.00;1.20;;;;;;;14.72;64.00;96786.31;4868130;28;20215;-86
2023/08/28 02:56:17;;;;;;;3.25;1.00;;;;;;;14.99;63.69;96785.72;4884968;28;20392;-86
2023/08/28 02:58:43;;;;;;;1.50;0.82;;;;;;;14.80;63.69;96783.06;4915149;28;20199;-86
2023/08/28 03:01:09;;;;;;;1.83;1.25;;;;;;;14.81;63.95;96784.63;4881665;28;20539;-87
2023/08/28 03:03:34;;;;;;;1.00;0.90;;;;;;;14.61;63.68;96767.31;4884238;28;20263;-86
2023/08/28 03:06:01;;;;;;;1.10;0.95;;;;;;;14.69;63.99;96776.41;4868868;28;20341;-86
2023/08/28 03:08:30;;;;;;;1.13;0.98;;;;;;;14.73;64.06;96772.91;4884559;28;20179;-86
2023/08/28 03:10:55;;;;;;;1.50;1.40;;;;;;;14.64;63.75;96765.97;4908978;28;20280;-86
2023/08/28 03:13:21;;;;;;;2.05;1.00;;;;;;;14.72;63.61;96784.47;4895256;28;20195;-85
2023/08/28 03:15:46;;;;;;;1.52;1.05;;;;;;;14.76;63.49;96774.22;4869547;28;20649;-85
2023/08/28 03:18:11;;;;;;;1.48;1.30;;;;;;;14.79;63.17;96777.06;4864822;28;20246;-85
2023/08/28 03:20:37;;;;;;;1.27;1.17;;;;;;;14.87;63.70;96772.25;4914471;28;20160;-86
2023/08/28 03:23:02;;;;;;;1.17;0.88;;;;;;;14.75;63.13;96765.59;4883218;28;20172;-86
2023/08/28 03:25:28;;;;;;;2.00;1.00;;;;;;;14.63;63.24;96746.84;4885322;28;20402;-86
2023/08/28 03:27:53;;;;;;;1.88;1.10;;;;;;;14.77;63.66;96766.06;4861620;28;20347;-86
2023/08/28 03:30:19;;;;;;;1.65;1.10;;;;;;;14.78;63.42;96757.13;4877034;28;20101;-86
2023/08/28 03:32:44;;;;;;;2.17;1.10;;;;;;;14.80;64.11;96743.75;4876529;28;20480;-86
2023/08/28 03:35:10;;;;;;;1.40;0.90;;;;;;;14.87;63.04;96749.41;4892652;28;20277;-86
2023/08/28 03:37:35;;;;;;;1.23;0.95;;;;;;;14.82;63.37;96731.13;4878518;28;20238;-86
2023/08/28 03:40:01;;;;;;;2.60;0.80;;;;;;;14.94;63.00;96762.19;4880163;28;20506;-86
2023/08/28 03:42:26;;;;;;;2.00;1.10;;;;;;;14.89;62.69;96759.63;4871988;28;20172;-86
2023/08/28 03:44:51;;;;;;;1.10;1.00;;;;;;;14.73;62.58;96741.47;4891203;28;20192;-86
2023/08/28 03:47:17;;;;;;;1.55;1.02;;;;;;;14.81;63.03;96755.03;4873263;28;20390;-86
2023/08/28 03:49:42;;;;;;;0.93;0.93;;;;;;;14.67;63.17;96745.25;4856922;28;20308;-86
2023/08/28 03:52:07;;;;;;;1.05;0.95;;;;;;;14.55;63.71;96744.84;4860986;28;20198;-86
2023/08/28 03:54:33;;;;;;;2.00;0.85;;;;;;;14.40;65.21;96743.16;4875596;28;20195;-86
2023/08/28 03:56:58;;;;;;;1.95;1.20;;;;;;;14.46;65.26;96725.53;4872299;28;20597;-86
2023/08/28 03:59:24;;;;;;;2.20;1.30;;;;;;;14.75;64.04;96728.09;4877511;28;20100;-87
2023/08/28 04:01:50;;;;;;;2.53;1.20;;;;;;;14.79;63.31;96735.13;4860876;28;20190;-86
2023/08/28 04:04:16;;;;;;;6.15;1.10;;;;;;;14.85;63.04;96727.19;4876902;28;20331;-86
2023/08/28 04:06:42;;;;;;;1.77;1.20;;;;;;;14.75;62.81;96718.41;4861467;28;20242;-86
2023/08/28 04:09:07;;;;;;;1.83;1.13;;;;;;;14.72;62.69;96724.22;4863242;28;20278;-86
2023/08/28 04:11:33;;;;;;;2.83;1.40;;;;;;;14.56;63.50;96709.69;4863527;28;20166;-86
2023/08/28 04:13:58;;;;;;;3.20;1.42;;;;;;;14.66;63.33;96729.78;4879812;28;20645;-86
2023/08/28 04:16:23;;;;;;;3.58;1.30;;;;;;;14.65;63.04;96736.09;4862243;28;20183;-86
2023/08/28 04:18:49;;;;;;;3.33;1.60;;;;;;;14.69;63.10;96735.25;4862251;28;20259;-86
2023/08/28 04:21:14;;;;;;;1.30;1.15;;;;;;;14.58;62.88;96725.91;4883095;28;20179;-86
2023/08/28 04:23:40;;;;;;;1.55;1.10;;;;;;;14.65;62.97;96733.47;4864568;28;20156;-86
2023/08/28 04:26:06;;;;;;;1.42;1.25;;;;;;;14.52;63.43;96719.97;4896961;28;20206;-86
2023/08/28 04:28:31;;;;;;;2.05;1.17;;;;;;;14.58;62.77;96739.00;4874182;28;20241;-86
2023/08/28 04:30:57;;;;;;;3.40;1.40;;;;;;;14.55;62.56;96748.22;4891492;28;20414;-86
2023/08/28 04:33:23;;;;;;;2.05;1.55;;;;;;;14.51;63.87;96751.69;4897176;28;20342;-86
2023/08/28 04:35:49;;;;;;;2.08;1.33;;;;;;;14.51;62.61;96746.44;4902236;28;20319;-86
2023/08/28 04:38:14;;;;;;;2.72;1.35;;;;;;;14.54;63.61;96754.50;4920934;28;20125;-86
2023/08/28 04:40:39;;;;;;;1.50;1.38;;;;;;;14.47;63.11;96750.69;4902699;28;20116;-86
2023/08/28 04:43:05;;;;;;;1.52;1.17;;;;;;;14.38;63.01;96751.28;4895059;28;20573;-86
2023/08/28 04:45:30;;;;;;;1.70;1.40;;;;;;;14.40;63.37;96754.41;4894442;28;20652;-86
2023/08/28 04:47:55;;;;;;;2.53;1.20;;;;;;;14.26;63.55;96740.44;4878997;28;20162;-86
2023/08/28 04:50:21;;;;;;;1.30;1.20;;;;;;;14.35;64.48;96766.78;4878853;28;20207;-86
2023/08/28 04:52:46;;;;;;;2.53;1.30;;;;;;;14.45;64.16;96744.94;4907363;28;20337;-86
2023/08/28 04:55:12;;;;;;;3.20;1.33;;;;;;;14.37;64.55;96757.56;4889000;28;20104;-86
2023/08/28 04:57:37;;;;;;;2.70;0.95;;;;;;;14.33;64.13;96753.97;4907016;28;20622;-86
2023/08/28 05:00:03;;;;;;;1.85;1.10;;;;;;;14.17;64.09;96739.47;4885141;28;20228;-86
2023/08/28 05:02:28;;;;;;;3.42;1.70;;;;;;;14.18;64.56;96746.28;4885606;28;20208;-86
2023/08/28 05:04:55;;;;;;;1.10;1.00;;;;;;;14.27;64.81;96747.22;4901728;28;20196;-86
2023/08/28 05:07:21;;;;;;;1.88;1.77;;;;;;;14.22;65.83;96745.44;4867044;28;20289;-86
2023/08/28 05:09:47;;;;;;;1.55;1.20;;;;;;;14.34;65.08;96747.69;4893549;28;20363;-86
2023/08/28 05:12:12;;;;;;;1.38;1.25;;;;;;;14.40;64.22;96741.31;4865975;28;20263;-86
2023/08/28 05:14:37;;;;;;;1.90;1.30;;;;;;;14.21;64.54;96722.94;4859460;28;20324;-86
2023/08/28 05:17:05;;;;;;;1.40;1.30;;;;;;;14.49;64.44;96745.94;4862376;28;20195;-86
2023/08/28 05:19:31;;;;;;;1.80;1.20;;;;;;;14.71;63.98;96738.34;4867914;28;20250;-86
2023/08/28 05:21:56;;;;;;;1.65;1.33;;;;;;;14.81;64.06;96736.69;4900798;28;20285;-86
2023/08/28 05:24:21;;;;;;;1.35;1.00;;;;;;;14.72;64.60;96724.22;4884024;28;20478;-86
2023/08/28 05:26:47;;;;;;;1.92;1.67;;;;;;;14.87;64.14;96740.78;4901242;28;20219;-86
2023/08/28 05:29:12;;;;;;;2.42;1.30;;;;;;;14.98;64.06;96740.38;4899028;28;20148;-86
2023/08/28 05:31:37;;;;;;;1.30;1.00;;;;;;;15.01;63.29;96735.63;4863803;28;20309;-86
2023/08/28 05:34:03;;;;;;;1.92;1.30;;;;;;;14.81;63.62;96707.84;4875758;28;20255;-85
2023/08/28 05:36:28;;;;;;;3.85;1.40;;;;;;;14.91;63.52;96728.69;4863651;28;20293;-85
2023/08/28 05:38:54;;;;;;;1.80;1.30;;;;;;;15.09;64.09;96745.47;4863585;28;20180;-85
2023/08/28 05:41:19;;;;;;;7.40;1.77;;;;;;;15.02;64.03;96724.84;4878424;28;20411;-85
2023/08/28 05:43:45;;;;;;;1.30;1.20;;;;;;;15.02;63.70;96722.22;4875946;28;20200;-86
2023/08/28 05:46:10;;;;;;;2.78;1.13;;;;;;;15.04;64.01;96729.81;4862427;28;20294;-86
2023/08/28 05:48:36;;;;;;;1.48;1.15;;;;;;;15.28;64.44;96758.56;4905578;28;20177;-86
2023/08/28 05:51:01;;;;;;;1.50;1.10;;;;;;;15.35;63.55;96751.94;4888677;28;20351;-86
2023/08/28 05:53:29;;;;;;;1.90;1.42;;;;;;;15.40;63.44;96742.41;4891131;28;20171;-86
2023/08/28 05:55:54;;;;;;;1.10;1.00;;;;;;;15.33;63.28;96737.53;4908284;28;20031;-86
2023/08/28 05:58:20;;;;;;;4.50;1.23;;;;;;;15.27;62.80;96736.06;4909160;28;20270;-85
2023/08/28 06:00:46;;;;;;;2.20;1.40;;;;;;;15.38;64.39;96755.81;4910079;28;20080;-86
2023/08/28 06:03:11;;;;;;;1.50;1.20;;;;;;;15.49;64.11;96765.09;4894777;28;20130;-86
2023/08/28 06:05:38;;;;;;;1.25;1.10;;;;;;;15.61;64.12;96766.47;4893443;28;20197;-86
2023/08/28 06:08:03;;;;;;;1.70;1.60;;;;;;;15.52;64.16;96740.13;4906566;28;20296;-86
2023/08/28 06:10:29;;;;;;;4.22;1.75;;;;;;;15.77;64.05;96765.22;4889474;28;20037;-87
2023/08/28 06:12:54;;;;;;;1.80;1.38;;;;;;;15.78;64.48;96769.41;4878773;28;20175;-86
2023/08/28 06:15:20;;;;;;;2.25;1.60;;;;;;;15.76;63.97;96761.00;4895532;28;20215;-86
2023/08/28 06:17:46;;;;;;;1.42;1.20;;;;;;;15.76;64.48;96747.13;4904630;28;20195;-86
2023/08/28 06:20:12;;;;;;;1.98;1.48;;;;;;;15.72;64.30;96739.00;4876830;28;20202;-86
2023/08/28 06:22:38;;;;;;;3.10;1.83;;;;;;;15.81;64.40;96747.03;4894682;28;20376;-86
2023/08/28 06:25:04;;;;;;;2.80;1.83;;;;;;;15.96;64.20;96769.63;4891054;28;20227;-85
2023/08/28 06:27:30;;;;;;;2.10;1.75;;;;;;;15.90;64.09;96759.22;4895774;28;20159;-86
2023/08/28 06:29:55;;;;;;;2.88;1.40;;;;;;;16.08;63.34;96777.81;4890355;28;20184;-86
2023/08/28 06:32:21;;;;;;;2.03;1.50;;;;;;;16.05;63.82;96766.03;4873247;28;20299;-86
2023/08/28 06:34:46;;;;;;;2.30;1.60;;;;;;;16.09;64.16;96777.53;4906547;28;20343;-85
2023/08/28 06:37:12;;;;;;;2.90;2.17;;;;;;;16.01;63.77;96764.28;4895360;28;20246;-85
2023/08/28 06:39:37;;;;;;;1.67;1.42;;;;;;;16.12;63.38;96770.91;4902247;28;20215;-86
2023/08/28 06:42:03;;;;;;;1.80;1.30;;;;;;;16.29;63.75;96779.00;4883605;28;20210;-85
2023/08/28 06:44:28;;;;;;;1.40;1.30;;;;;;;16.38;63.30;96784.38;4922778;28;20092;-85
2023/08/28 06:46:53;;;;;;;2.85;1.70;;;;;;;16.28;62.55;96777.47;4906310;28;20238;-90
2023/08/28 06:49:19;;;;;;;1.90;1.27;;;;;;;16.27;63.36;96760.13;4872404;28;20222;-85
2023/08/28 06:51:45;;;;;;;1.67;1.45;;;;;;;16.41;62.95;96772.50;4874974;28;20188;-85
2023/08/28 06:54:11;;;;;;;2.55;1.70;;;;;;;16.44;63.61;96777.19;4905593;28;20204;-86
2023/08/28 06:56:36;;;;;;;1.52;1.30;;;;;;;16.53;63.26;96783.31;4888650;28;20358;-85
2023/08/28 06:59:02;;;;;;;2.55;1.33;;;;;;;16.43;63.49;96757.22;4895614;28;20215;-85
2023/08/28 07:01:27;;;;;;;2.13;1.60;;;;;;;16.55;64.25;96754.09;4888191;28;20193;-86
2023/08/28 07:03:53;;;;;;;2.22;1.55;;;;;;;16.72;63.50;96758.75;4883276;28;20713;-85
2023/08/28 07:06:18;;;;;;;1.85;1.40;;;;;;;16.63;63.51;96741.06;4879443;28;20275;-85
2023/08/28 07:08:44;;;;;;;1.48;1.38;;;;;;;16.71;62.94;96752.75;4871436;28;20202;-85
2023/08/28 07:11:09;;;;;;;1.63;1.52;;;;;;;16.59;63.86;96724.31;4886632;28;20199;-85
2023/08/28 07:13:34;;;;;;;1.75;1.40;;;;;;;16.80;62.90;96752.81;4868821;28;20200;-85
2023/08/28 07:16:00;;;;;;;1.55;1.40;;;;;;;16.62;62.72;96726.38;4899405;28;20503;-85
2023/08/28 07:18:26;;;;;;;2.97;1.30;;;;;;;16.82;63.26;96746.19;4885299;28;20365;-85
2023/08/28 07:20:52;;;;;;;2.47;1.40;;;;;;;16.88;63.18;96744.28;4906203;28;20168;-85
2023/08/28 07:23:18;;;;;;;1.70;1.60;;;;;;;16.90;62.90;96731.59;4886940;28;20807;-85
2023/08/28 07:25:44;;;;;;;1.63;1.15;;;;;;;16.98;62.64;96735.38;4880717;28;20289;-86
2023/08/28 07:28:10;;;;;;;1.20;1.10;;;;;;;17.04;62.57;96734.97;4885469;28;20227;-85
2023/08/28 07:30:36;;;;;;;1.75;1.27;;;;;;;17.07;62.26;96730.19;4918916;28;20211;-85
2023/08/28 07:33:02;;;;;;;0.90;0.90;;;;;;;17.13;62.43;96729.78;4878319;28;20230;-85
2023/08/28 07:35:29;;;;;;;1.30;1.20;;;;;;;17.19;63.18;96725.19;4892319;28;20194;-85
2023/08/28 07:37:54;;;;;;;2.65;1.40;;;;;;;17.21;63.08;96723.81;4887224;28;20222;-85
2023/08/28 07:40:20;;;;;;;2.33;1.75;;;;;;;17.20;62.98;96721.47;4902415;28;20282;-86
2023/08/28 07:42:45;;;;;;;1.52;1.42;;;;;;;17.20;62.65;96724.09;4886441;28;20634;-86
2023/08/28 07:45:13;;;;;;;1.50;1.40;;;;;;;17.26;62.88;96715.03;4886348;28;20045;-85
2023/08/28 07:47:39;;;;;;;2.58;1.30;;;;;;;17.20;61.89;96705.69;4900627;28;20658;-86
2023/08/28 07:50:04;;;;;;;2.00;1.40;;;;;;;17.38;62.10;96743.44;4892085;28;20189;-85
2023/08/28 07:52:30;;;;;;;2.90;1.40;;;;;;;17.27;62.31;96719.19;4885606;28;20164;-86
2023/08/28 07:54:55;;;;;;;1.73;1.45;;;;;;;17.23;62.09;96715.63;4925428;28;20364;-85
2023/08/28 07:57:23;;;;;;;3.55;1.63;;;;;;;17.34;61.83;96721.41;4889846;28;20279;-86
2023/08/28 07:59:48;;;;;;;1.63;1.38;;;;;;;17.52;60.79;96722.31;4893491;28;20195;-85
2023/08/28 08:02:14;;;;;;;2.20;1.65;;;;;;;17.53;61.29;96729.13;4920974;28;20305;-84
2023/08/28 08:04:39;;;;;;;2.90;1.77;;;;;;;17.65;61.13;96742.53;4898257;28;20666;-86
2023/08/28 08:07:04;;;;;;;1.45;1.33;;;;;;;17.66;60.85;96728.28;4885024;28;20199;-85
2023/08/28 08:09:30;;;;;;;2.00;1.80;;;;;;;17.89;60.66;96742.25;4862136;28;20293;-85
2023/08/28 08:11:55;;;;;;;1.73;1.63;;;;;;;17.94;60.37;96743.94;4877251;28;20825;-85
2023/08/28 08:14:22;;;;;;;2.75;1.60;;;;;;;17.98;60.83;96741.53;4893471;28;20656;-85
2023/08/28 08:16:47;;;;;;;2.67;2.03;;;;;;;18.03;60.48;96744.03;4892948;28;20235;-85
2023/08/28 08:19:12;;;;;;;3.05;1.60;;;;;;;18.00;60.10;96748.03;4875825;28;20706;-86
2023/08/28 08:21:38;;;;;;;2.63;1.30;;;;;;;18.04;59.93;96754.22;4891873;28;20242;-85
2023/08/28 08:24:03;;;;;;;2.60;1.60;;;;;;;18.06;59.65;96752.09;4888945;28;20568;-85
2023/08/28 08:26:29;;;;;;;2.95;1.60;;;;;;;18.08;60.01;96743.88;4875416;28;20542;-85
2023/08/28 08:28:55;;;;;;;1.27;1.17;;;;;;;17.87;59.83;96731.25;4877621;28;20251;-85
2023/08/28 08:31:20;;;;;;;3.30;1.75;;;;;;;17.90;59.76;96732.47;4910113;28;20099;-85
2023/08/28 08:33:46;;;;;;;1.55;1.45;;;;;;;17.91;60.27;96736.69;4859339;28;20599;-85
2023/08/28 08:36:14;;;;;;;2.55;1.80;;;;;;;17.90;59.84;96733.25;4877467;28;20679;-85
2023/08/28 08:38:40;;;;;;;1.50;1.40;;;;;;;17.93;59.72;96726.63;4909180;28;20707;-84
2023/08/28 08:41:06;;;;;;;1.80;1.40;;;;;;;18.08;60.00;96744.66;4889376;28;20713;-84
2023/08/28 08:43:32;;;;;;;2.92;1.38;;;;;;;17.92;59.73;96727.69;4874852;28;20635;-85
2023/08/28 08:46:07;;;;;;;1.20;1.10;;;;;;;18.27;59.57;96752.34;4890010;28;20338;-86
2023/08/28 08:48:36;;;;;;;3.63;1.50;;;;;;;18.26;59.85;96760.53;4870192;28;20278;-85
2023/08/28 08:51:04;;;;;;;1.73;1.63;;;;;;;18.42;58.59;96747.72;4908303;28;20272;-87
2023/08/28 08:53:48;;;;;;;2.97;1.45;;;;;;;18.55;59.57;96759.25;4872772;28;20610;-86
2023/08/28 08:56:17;;;;;;;1.95;1.58;;;;;;;18.45;59.19;96745.25;4889689;28;20187;-86
2023/08/28 08:58:43;;;;;;;2.22;1.45;;;;;;;18.50;59.23;96771.47;4876664;28;20278;-86
2023/08/28 09:01:09;;;;;;;1.50;1.30;;;;;;;18.44;59.13;96775.34;4887168;28;20536;-86
2023/08/28 09:03:35;;;;;;;2.22;1.35;;;;;;;18.42;58.98;96784.63;4887538;28;20210;-86
2023/08/28 09:06:01;;;;;;;1.42;1.30;;;;;;;18.30;59.11;96766.75;4876364;28;20505;-86
2023/08/28 09:08:28;;;;;;;4.32;1.35;;;;;;;18.36;58.63;96781.34;4888213;28;20215;-86
2023/08/28 09:10:57;;;;;;;1.45;1.00;;;;;;;18.62;58.84;96783.31;4896753;28;20271;-86
2023/08/28 09:13:23;;;;;;;2.72;1.58;;;;;;;18.66;58.45;96774.47;4874898;28;20660;-86
2023/08/28 09:15:48;;;;;;;2.03;1.40;;;;;;;18.71;58.42;96776.19;4887311;28;20211;-87
2023/08/28 09:18:13;;;;;;;1.75;1.60;;;;;;;18.64;57.96;96776.63;4874625;28;20535;-86
2023/08/28 09:20:39;;;;;;;1.92;1.30;;;;;;;18.65;58.26;96785.34;4860265;28;20253;-87
2023/08/28 09:23:04;;;;;;;2.03;1.00;;;;;;;18.83;57.70;96792.25;4873388;28;20290;-86
2023/08/28 09:25:31;;;;;;;2.60;1.60;;;;;;;18.89;58.00;96774.41;4876401;28;20246;-87
2023/08/28 09:27:59;;;;;;;2.20;1.10;;;;;;;18.99;57.46;96797.09;4909804;28;20682;-87
2023/08/28 09:30:27;;;;;;;2.80;2.13;;;;;;;19.14;58.78;96799.28;4870167;28;20276;-86
2023/08/28 09:32:53;;;;;;;2.72;1.23;;;;;;;19.11;57.70;96791.97;4892298;28;20239;-87
2023/08/28 09:35:21;;;;;;;1.77;1.48;;;;;;;19.11;57.75;96794.63;4874028;28;20621;-85
2023/08/28 09:38:01;;;;;;;1.85;1.48;;;;;;;19.17;56.45;96798.63;4892297;28;20185;-86
2023/08/28 09:40:37;;;;;;;1.95;1.30;;;;;;;19.17;57.12;96798.63;4889593;28;20280;-87
2023/08/28 09:43:13;;;;;;;3.10;1.75;;;;;;;19.24;57.85;96787.63;4905178;28;20652;-87
2023/08/28 09:45:39;;;;;;;1.52;1.40;;;;;;;19.18;56.91;96775.69;4898657;28;20243;-87
2023/08/28 09:48:05;;;;;;;2.33;1.38;;;;;;;19.34;57.79;96792.59;4874124;28;20281;-87
2023/08/28 09:50:31;;;;;;;2.08;1.30;;;;;;;19.53;57.29;96794.94;4865104;28;20545;-87
2023/08/28 09:53:17;;;;;;;1.48;1.25;;;;;;;19.65;56.86;96787.16;4863691;28;20716;-86
2023/08/28 09:55:48;;;;;;;2.03;1.70;;;;;;;19.56;56.09;96790.91;4889991;28;20673;-87
2023/08/28 09:58:14;;;;;;;3.28;1.67;;;;;;;19.46;56.27;96800.66;4877451;28;20297;-87
2023/08/28 10:00:40;;;;;;;2.08;1.25;;;;;;;19.43;56.32;96788.13;4892463;28;20283;-86
2023/08/28 10:03:10;;;;;;;1.58;1.48;;;;;;;19.34;54.70;96794.47;4900351;28;20119;-86
2023/08/28 10:05:38;;;;;;;2.53;1.25;;;;;;;19.25;55.17;96782.03;4873356;28;20130;-86
2023/08/28 10:08:07;;;;;;;2.42;1.00;;;;;;;19.19;55.84;96785.94;4875553;28;20242;-86
2023/08/28 10:10:33;;;;;;;1.80;1.30;;;;;;;19.36;55.52;96787.00;4876847;28;20127;-87
2023/08/28 10:13:00;;;;;;;1.20;1.05;;;;;;;19.58;54.78;96778.91;4862740;28;20290;-89
2023/08/28 10:15:27;;;;;;;2.45;0.98;;;;;;;19.64;55.65;96775.03;4900598;28;20188;-87
2023/08/28 10:17:54;;;;;;;1.90;1.30;;;;;;;19.79;55.19;96778.31;4875032;28;20668;-86
2023/08/28 10:20:21;;;;;;;1.75;1.50;;;;;;;19.82;55.08;96777.69;4866902;28;20111;-85
2023/08/28 10:22:46;;;;;;;1.27;1.13;;;;;;;19.69;55.05;96749.53;4897802;28;20104;-86
2023/08/28 10:25:13;;;;;;;1.27;1.10;;;;;;;19.91;54.61;96757.31;4909328;28;20188;-85
2023/08/28 10:27:40;;;;;;;2.65;1.20;;;;;;;19.96;54.54;96765.06;4903711;28;20218;-86
2023/08/28 10:30:08;;;;;;;1.30;1.10;;;;;;;20.13;54.71;96753.66;4905731;28;20217;-87
2023/08/28 10:32:34;;;;;;;2.22;1.30;;;;;;;20.01;53.87;96735.84;4879604;28;20176;-87
2023/08/28 10:35:00;;;;;;;1.23;0.98;;;;;;;20.20;54.68;96753.97;4884772;28;20705;-86
2023/08/28 10:37:26;;;;;;;2.78;1.45;;;;;;;20.41;52.87;96758.53;4914926;28;20207;-86
2023/08/28 10:39:52;;;;;;;2.65;1.42;;;;;;;20.47;52.99;96761.78;4880197;28;20656;-86
2023/08/28 10:42:18;;;;;;;3.42;1.35;;;;;;;20.23;53.67;96768.41;4903745;28;20171;-85
2023/08/28 10:44:44;;;;;;;3.97;1.30;;;;;;;20.25;53.35;96755.63;4907284;28;20274;-85
2023/08/28 10:47:14;;;;;;;1.95;1.63;;;;;;;20.63;53.78;96754.09;4902589;28;20172;-85
2023/08/28 10:49:40;;;;;;;1.30;1.20;;;;;;;20.71;53.39;96746.09;4901259;28;20727;-84
2023/08/28 10:52:06;;;;;;;1.40;1.20;;;;;;;20.72;52.51;96744.25;4882054;28;20193;-86
2023/08/28 10:54:44;;;;;;;1.75;1.33;;;;;;;20.75;52.74;96736.44;4914259;28;20254;-87
2023/08/28 10:57:24;;;;;;;3.72;1.75;;;;;;;20.47;51.79;96740.63;4902306;28;20420;-86
2023/08/28 10:59:50;;;;;;;2.63;1.52;;;;;;;20.34;52.75;96743.16;4884767;28;20188;-87
2023/08/28 11:02:16;;;;;;;1.88;1.75;;;;;;;20.06;52.43;96736.75;4892437;28;20232;-84
2023/08/28 11:04:41;;;;;;;1.77;1.67;;;;;;;20.17;51.42;96732.66;4887342;28;20198;-86
2023/08/28 11:07:25;;;;;;;2.05;1.67;;;;;;;20.73;52.57;96741.28;4884918;28;20813;-85
2023/08/28 11:10:16;;;;;;;1.52;1.38;;;;;;;20.91;51.33;96734.00;4882052;28;20660;-86
2023/08/28 11:12:53;;;;;;;1.45;1.35;;;;;;;20.82;51.94;96724.56;4884953;28;20192;-86
2023/08/28 11:15:40;;;;;;;1.70;1.60;;;;;;;20.75;50.93;96730.34;4883682;28;20222;-86
2023/08/28 11:18:18;;;;;;;1.98;1.38;;;;;;;20.73;51.11;96733.34;4917437;28;20575;-85
2023/08/28 11:20:48;;;;;;;1.67;1.23;;;;;;;20.58;50.27;96726.72;4910893;28;20275;-86
2023/08/28 11:23:34;;;;;;;2.33;1.40;;;;;;;20.71;50.95;96732.09;4895927;28;20207;-86
2023/08/28 11:26:03;;;;;;;2.42;1.30;;;;;;;20.67;52.12;96717.97;4901621;28;20292;-86
2023/08/28 11:28:30;;;;;;;2.85;1.38;;;;;;;20.54;51.53;96730.31;4884241;28;20270;-88
2023/08/28 11:31:01;;;;;;;1.30;1.10;;;;;;;20.73;50.51;96725.41;4885142;28;20361;-86
2023/08/28 11:33:27;;;;;;;1.63;1.40;;;;;;;20.47;50.83;96716.81;4885812;28;20187;-87
2023/08/28 11:35:59;;;;;;;1.45;1.25;;;;;;;20.50;50.04;96727.53;4904564;28;20331;-86